KLYO/LYO METAR and TAF weather

Enter ICAO airport designator
Station Type Date Time Source
KLYO METAR 2021/01/17 18:55 UTC NOAA

KLYO 171855Z AUTO 32017G21KT 10SM CLR 08/M05 A3001 RMK AO2 T00851051


Station Type Date Time Source
KLYO Decoded METAR 2021/01/17 18:55 UTC NOAA

Station name not available
Jan 17, 2021 - 01:55 PM EST / 2021.01.17 1855 UTC
Wind: from the NW (320 degrees) at 20 MPH (17 KT) gusting to 24 MPH (21 KT):0
Visibility: 10 mile(s):0
Sky conditions: clear
Temperature: 47.3 F (8.5 C)
Dew Point: 22.8 F (-5.1 C)
Relative Humidity: 37%
Pressure (altimeter): 30.01 in. Hg (1016 hPa)
ob: KLYO 171855Z AUTO 32017G21KT 10SM CLR 08/M05 A3001 RMK AO2 T00851051
cycle: 19

Station Type Date Time Source
KLYO TAF UTC NOAA

Error!

Example: see airport list